Time;durP1;ratioP1;P1;durP2;ratioP2;P2;SDS_P1;SDS_P2;PMS_P1;PMS_P2;Temp;Humidity;BMP_temperature;BMP_pressure;BME280_temperature;BME280_humidity;BME280_pressure;Samples;Min_cycle;Max_cycle;Signal;HPM_P1;HPM_P2
2022/12/02 00:02:29;;;;;;;10.10;7.15;;;23.40;51.70;;;21.91;62.78;96153.16;4945300;28;20311;-47
2022/12/02 00:04:58;;;;;;;10.57;7.05;;;23.40;51.50;;;21.89;62.63;96150.75;4931111;28;20041;-46
2022/12/02 00:07:24;;;;;;;9.95;7.20;;;23.40;51.60;;;21.89;62.58;96155.31;4945771;28;20695;-46
2022/12/02 00:09:50;;;;;;;12.38;7.20;;;23.40;51.70;;;21.88;62.45;96145.66;4962009;28;20038;-44
2022/12/02 00:12:20;;;;;;;11.13;7.97;;;23.40;51.70;;;21.89;62.72;96137.38;4963388;28;20362;-46
2022/12/02 00:14:46;;;;;;;10.00;7.45;;;23.40;51.80;;;21.89;62.91;96144.59;4963195;28;20037;-49
2022/12/02 00:17:12;;;;;;;11.50;7.47;;;23.40;51.70;;;21.89;62.91;96147.28;4944552;28;20148;-46
2022/12/02 00:19:37;;;;;;;10.20;7.50;;;23.40;51.80;;;21.88;62.76;96141.09;4963030;28;20410;-46
2022/12/02 00:22:03;;;;;;;11.00;7.68;;;23.40;51.80;;;21.88;62.93;96142.97;4959069;28;20368;-45
2022/12/02 00:24:29;;;;;;;9.50;7.03;;;23.30;51.90;;;21.86;62.94;96135.22;4963887;28;20492;-46
2022/12/02 00:26:55;;;;;;;10.50;7.22;;;23.40;51.80;;;21.86;62.69;96135.22;4963862;28;20355;-47
2022/12/02 00:29:21;;;;;;;11.48;7.63;;;23.40;51.80;;;21.87;62.48;96136.81;4962411;28;20359;-45
2022/12/02 00:31:47;;;;;;;11.15;7.35;;;23.40;51.90;;;21.86;63.10;96137.88;4962423;28;20391;-47
2022/12/02 00:34:12;;;;;;;10.85;8.02;;;23.30;51.90;;;21.85;62.46;96133.59;4944985;28;20500;-46
2022/12/02 00:36:38;;;;;;;9.82;6.95;;;23.30;51.80;;;21.86;62.88;96134.41;4962421;28;20372;-47
2022/12/02 00:39:04;;;;;;;9.98;7.50;;;23.30;51.90;;;21.84;62.74;96131.97;4962948;28;20356;-49
2022/12/02 00:41:30;;;;;;;9.80;7.22;;;23.40;51.90;;;21.84;62.97;96131.97;4963054;28;20387;-48
2022/12/02 00:46:41;;;;;;;10.45;7.40;;;23.30;51.90;;;21.83;62.18;96130.38;4955687;28;20111;-49
2022/12/02 00:49:12;;;;;;;10.07;7.25;;;23.30;51.90;;;21.84;62.61;96131.97;4962708;28;20488;-44
2022/12/02 00:51:39;;;;;;;9.02;7.45;;;23.30;52.00;;;21.84;62.91;96128.50;4960534;28;20041;-47
2022/12/02 00:54:05;;;;;;;9.63;7.50;;;23.30;51.90;;;21.84;62.95;96123.94;4943582;28;20045;-47
2022/12/02 00:56:31;;;;;;;8.68;6.88;;;23.30;51.80;;;21.83;63.03;96125.00;4944984;28;20052;-48
2022/12/02 00:58:57;;;;;;;11.00;7.32;;;23.40;51.90;;;21.83;63.23;96127.69;4961913;28;20655;-48
2022/12/02 01:01:23;;;;;;;10.45;7.07;;;23.30;51.80;;;21.83;62.95;96126.88;4944573;28;20048;-46
2022/12/02 01:03:49;;;;;;;9.40;6.93;;;23.30;52.00;;;21.84;62.91;96123.16;4962476;28;20416;-48
2022/12/02 01:06:15;;;;;;;9.80;6.80;;;23.30;52.10;;;21.83;63.12;96125.00;4962034;28;20534;-45
2022/12/02 01:08:41;;;;;;;10.57;7.60;;;23.30;52.00;;;21.83;62.75;96121.53;4962877;28;20442;-47
2022/12/02 01:11:07;;;;;;;11.38;7.43;;;23.30;52.00;;;21.83;62.87;96124.22;4961589;28;20372;-47
2022/12/02 01:13:33;;;;;;;9.80;7.13;;;23.30;52.00;;;21.82;63.21;96126.09;4965019;28;20033;-47
2022/12/02 01:15:58;;;;;;;10.73;7.72;;;23.30;51.90;;;21.82;63.20;96119.91;4962354;28;20348;-46
2022/12/02 01:18:24;;;;;;;10.20;7.47;;;23.30;52.00;;;21.82;62.79;96118.06;4966079;28;20033;-46
2022/12/02 01:20:50;;;;;;;10.40;7.13;;;23.30;51.90;;;21.82;63.22;96117.25;4967198;28;20434;-47
2022/12/02 01:23:16;;;;;;;10.90;8.15;;;23.30;52.00;;;21.81;63.27;96111.09;4963974;28;20317;-46
2022/12/02 01:25:42;;;;;;;11.77;7.28;;;23.30;52.00;;;21.81;63.33;96113.75;4948051;28;20385;-48
2022/12/02 01:28:08;;;;;;;11.15;7.15;;;23.30;51.90;;;21.82;63.29;96112.69;4966528;28;20309;-46
2022/12/02 01:30:34;;;;;;;12.60;7.85;;;23.30;51.90;;;21.81;63.77;96105.72;4965344;28;20395;-45
2022/12/02 01:32:59;;;;;;;10.38;7.10;;;23.30;51.90;;;21.80;62.83;96104.13;4966021;28;20438;-46
2022/12/02 01:35:25;;;;;;;10.63;7.07;;;23.30;51.90;;;21.80;62.90;96104.13;4965238;28;20407;-47
2022/12/02 01:37:51;;;;;;;11.13;6.97;;;23.30;52.00;;;21.79;62.70;96101.69;4948696;28;20030;-46
2022/12/02 01:40:17;;;;;;;9.50;7.10;;;23.30;51.90;;;21.79;63.03;96099.81;4965073;28;20332;-46
2022/12/02 01:42:43;;;;;;;13.13;7.55;;;23.30;52.00;;;21.80;62.83;96101.44;4948322;28;20037;-49
2022/12/02 01:45:10;;;;;;;11.75;7.28;;;23.30;52.00;;;21.79;62.78;96102.50;4948148;28;20688;-46
2022/12/02 01:47:36;;;;;;;10.35;7.60;;;23.30;52.00;;;21.80;63.24;96104.13;4965847;28;20568;-46
2022/12/02 01:50:03;;;;;;;10.18;6.25;;;23.30;52.00;;;21.79;63.38;96102.50;4964862;28;20119;-46
2022/12/02 01:52:28;;;;;;;10.15;6.80;;;23.30;52.00;;;21.80;63.58;96103.31;4947627;28;20083;-47
2022/12/02 01:54:54;;;;;;;10.77;7.15;;;23.30;52.00;;;21.79;63.50;96094.47;4948148;28;20419;-45
2022/12/02 01:57:25;;;;;;;11.30;7.28;;;23.30;52.10;;;21.80;63.43;96103.31;4974324;28;20045;-47
2022/12/02 01:59:51;;;;;;;13.43;7.45;;;23.30;52.00;;;21.79;63.30;96101.69;4937115;28;20098;-45
2022/12/02 02:02:37;;;;;;;9.90;6.70;;;23.20;52.00;;;21.78;63.01;96095.53;4968544;28;20426;-46
2022/12/02 02:05:17;;;;;;;10.43;7.03;;;23.20;52.10;;;21.78;63.14;96095.53;4965012;28;20608;-46
2022/12/02 02:07:45;;;;;;;;;;;23.20;52.10;;;21.76;63.53;96097.69;4965999;28;20041;-46
2022/12/02 02:10:11;;;;;;;8.95;6.68;;;23.20;52.00;;;21.72;63.50;96091.19;4960561;28;19935;-46
2022/12/02 02:12:36;;;;;;;10.32;6.35;;;23.30;52.00;;;21.74;63.65;96097.13;4956775;28;20064;-46
2022/12/02 02:15:05;;;;;;;8.63;6.40;;;23.30;51.90;;;21.75;63.64;96095.25;4965341;28;20239;-46
2022/12/02 02:17:30;;;;;;;8.82;6.45;;;23.30;52.00;;;21.71;63.30;96089.59;4965555;28;20042;-45
2022/12/02 02:19:56;;;;;;;8.75;6.38;;;23.30;52.00;;;21.74;63.05;96088.28;4963965;28;20343;-45
2022/12/02 02:23:05;;;;;;;9.20;5.80;;;23.30;52.10;;;21.73;63.43;96087.50;4966503;28;20288;-47
2022/12/02 02:25:45;;;;;;;11.55;6.30;;;23.30;52.00;;;21.74;63.01;96086.41;4950248;28;20560;-45
2022/12/02 02:28:11;;;;;;;8.47;6.23;;;23.30;52.00;;;21.72;63.36;96080.50;4965613;28;20052;-49
2022/12/02 02:30:36;;;;;;;9.52;7.15;;;23.20;52.10;;;21.71;63.20;96073.53;4966628;28;20972;-46
2022/12/02 02:33:05;;;;;;;8.48;6.00;;;23.20;52.10;;;21.70;63.22;96071.91;4966217;28;20037;-46
2022/12/02 02:35:32;;;;;;;7.63;6.30;;;23.20;52.10;;;21.71;63.53;96078.88;4941663;28;20045;-46
2022/12/02 02:37:58;;;;;;;9.50;6.38;;;23.20;52.20;;;21.71;63.87;96081.56;4966379;28;20597;-46
2022/12/02 02:40:24;;;;;;;10.15;6.15;;;23.30;52.00;;;21.71;63.23;96068.97;4966614;28;20029;-45
2022/12/02 02:42:52;;;;;;;8.85;6.80;;;23.20;52.20;;;21.71;62.96;96076.19;4966646;28;20052;-45
2022/12/02 02:45:23;;;;;;;8.30;6.00;;;23.20;52.00;;;21.70;63.70;96075.41;4966886;28;20043;-46
2022/12/02 02:47:49;;;;;;;8.45;6.18;;;23.20;52.00;;;21.70;63.55;96075.41;4966095;28;20033;-45
2022/12/02 02:50:15;;;;;;;7.88;5.65;;;23.10;52.00;;;21.70;63.87;96071.91;4964457;28;20291;-45
2022/12/02 02:52:41;;;;;;;7.45;6.15;;;23.20;52.10;;;21.69;63.45;96073.78;4983916;28;20032;-47
2022/12/02 02:55:07;;;;;;;10.57;6.50;;;23.20;52.00;;;21.70;62.79;96066.56;4944908;28;20293;-48
2022/12/02 02:57:33;;;;;;;9.77;6.13;;;23.20;52.00;;;21.70;63.60;96061.22;4963625;28;20045;-49
2022/12/02 02:59:59;;;;;;;8.40;6.22;;;23.20;52.10;;;21.68;63.94;96064.16;4960908;28;20074;-47
2022/12/02 03:02:25;;;;;;;7.53;5.75;;;23.10;52.00;;;21.69;63.60;96059.59;4966413;28;20473;-47
2022/12/02 03:04:51;;;;;;;7.30;5.55;;;23.20;52.00;;;21.70;63.48;96063.88;4971587;28;20329;-47
2022/12/02 03:07:17;;;;;;;6.72;5.47;;;23.30;52.10;;;21.74;63.33;96065.00;4947171;28;20363;-46
2022/12/02 03:09:43;;;;;;;7.68;5.80;;;23.30;52.00;;;21.75;63.18;96053.22;4946316;28;20215;-46
2022/12/02 03:12:09;;;;;;;8.85;5.85;;;23.30;51.90;;;21.80;63.63;96049.75;4963250;28;20292;-46
2022/12/02 03:14:34;;;;;;;6.45;5.47;;;23.30;51.90;;;21.83;63.66;96060.75;4945451;28;20470;-46
2022/12/02 03:17:01;;;;;;;7.88;5.35;;;23.30;52.00;;;21.87;63.44;96055.69;4964352;28;20462;-47
2022/12/02 03:19:28;;;;;;;8.30;5.88;;;23.40;51.90;;;21.91;63.79;96062.13;4963346;28;20119;-46
2022/12/02 03:21:54;;;;;;;8.25;5.88;;;23.40;51.90;;;21.93;63.51;96055.44;4977003;28;20090;-47
2022/12/02 03:24:20;;;;;;;7.72;5.22;;;23.40;51.90;;;21.97;62.75;96053.06;4954290;28;20399;-47
2022/12/02 03:26:46;;;;;;;7.45;5.85;;;23.50;52.00;;;21.98;63.90;96058.16;4962551;28;20356;-46
2022/12/02 03:29:12;;;;;;;7.60;5.60;;;23.50;51.80;;;22.00;62.79;96050.66;4971928;28;20360;-47
2022/12/02 03:31:38;;;;;;;7.80;5.50;;;23.50;51.70;;;22.02;63.28;96053.06;4958578;28;20413;-46
2022/12/02 03:34:04;;;;;;;10.60;5.05;;;23.50;51.90;;;22.03;62.85;96054.69;4947670;28;20379;-48
2022/12/02 03:36:29;;;;;;;6.90;5.43;;;23.50;51.70;;;22.04;63.17;96050.13;4948157;28;20387;-48
2022/12/02 03:38:55;;;;;;;6.90;4.93;;;23.50;51.70;;;22.06;63.33;96058.72;4982198;28;20414;-47
2022/12/02 03:41:22;;;;;;;7.25;5.45;;;23.50;51.70;;;22.07;62.97;96053.09;4982402;28;20126;-46
2022/12/02 03:43:48;;;;;;;9.32;6.20;;;23.50;51.60;;;22.09;62.60;96052.84;4965188;28;20045;-46
2022/12/02 03:46:14;;;;;;;7.72;5.47;;;23.50;51.60;;;22.08;62.61;96051.22;4981347;28;20524;-46
2022/12/02 03:48:40;;;;;;;7.22;5.68;;;23.50;51.60;;;22.09;62.77;96055.53;4982191;28;20343;-46
2022/12/02 03:51:06;;;;;;;7.95;5.40;;;23.50;51.60;;;22.10;62.42;96043.75;4982133;28;20474;-46
2022/12/02 03:53:33;;;;;;;9.45;5.45;;;23.50;51.50;;;22.08;63.13;96052.03;4964333;28;20037;-46
2022/12/02 03:56:05;;;;;;;6.68;5.25;;;23.50;51.60;;;22.09;62.30;96047.50;4963036;28;20064;-46
2022/12/02 03:58:43;;;;;;;6.75;5.05;;;23.50;51.50;;;22.10;62.51;96043.75;4965148;28;20563;-47
2022/12/02 04:01:09;;;;;;;7.78;5.30;;;23.50;51.50;;;22.08;62.73;96046.69;4964691;28;20067;-46
2022/12/02 04:03:35;;;;;;;6.28;5.05;;;23.50;51.70;;;22.08;62.82;96038.66;4982426;28;20358;-45
2022/12/02 04:06:00;;;;;;;9.18;5.22;;;23.50;51.60;;;22.08;62.81;96029.81;4980463;28;20324;-46
2022/12/02 04:08:26;;;;;;;6.43;5.13;;;23.50;51.70;;;22.07;62.53;96028.19;4981779;28;20351;-47
2022/12/02 04:10:52;;;;;;;6.90;5.07;;;23.50;51.60;;;22.06;62.50;96030.06;4977130;28;20056;-46
2022/12/02 04:13:18;;;;;;;7.03;5.20;;;23.50;51.70;;;22.07;62.75;96038.91;4944633;28;20363;-47
2022/12/02 04:15:44;;;;;;;8.52;5.55;;;23.50;51.70;;;22.06;63.12;96031.94;4945106;28;20364;-47
2022/12/02 04:18:10;;;;;;;7.90;5.40;;;23.50;51.70;;;22.06;62.77;96031.94;4961455;28;20189;-45
2022/12/02 04:20:36;;;;;;;8.55;5.68;;;23.50;51.60;;;22.06;62.46;96029.25;4944747;28;20464;-47
2022/12/02 04:23:02;;;;;;;7.55;5.32;;;23.50;51.60;;;22.05;62.75;96033.00;4962722;28;20406;-47
2022/12/02 04:25:28;;;;;;;7.40;4.97;;;23.50;51.50;;;22.05;62.99;96022.31;4963742;28;20351;-46
2022/12/02 04:27:53;;;;;;;6.88;5.20;;;23.50;51.60;;;22.05;62.99;96030.34;4982192;28;20403;-49
2022/12/02 04:30:20;;;;;;;7.32;5.22;;;23.50;51.70;;;22.04;62.78;96034.06;4981472;28;20479;-49
2022/12/02 04:32:46;;;;;;;6.78;5.53;;;23.50;51.70;;;22.02;62.60;96035.13;4933225;28;20036;-50
2022/12/02 04:35:12;;;;;;;7.82;5.15;;;23.50;51.60;;;22.02;62.95;96027.09;4932284;28;20045;-46
2022/12/02 04:37:38;;;;;;;7.30;5.35;;;23.50;51.60;;;22.02;62.52;96016.38;4963965;28;20048;-46
2022/12/02 04:40:05;;;;;;;7.55;5.68;;;23.50;51.70;;;22.01;62.72;96014.75;4915372;28;20040;-47
2022/12/02 04:42:31;;;;;;;6.97;5.40;;;23.50;51.50;;;22.00;62.64;96015.84;4981921;28;20040;-48
2022/12/02 04:44:56;;;;;;;6.80;4.70;;;23.50;51.50;;;21.99;62.94;96030.28;4981948;28;20512;-46
2022/12/02 04:47:22;;;;;;;7.03;5.68;;;23.50;51.50;;;21.98;62.57;96026.00;4982476;28;20384;-48
2022/12/02 04:49:48;;;;;;;7.97;6.03;;;23.50;51.40;;;21.99;62.08;96021.44;4981759;28;20421;-45
2022/12/02 04:52:14;;;;;;;7.85;5.43;;;23.50;51.00;;;21.98;61.86;96022.53;4976221;28;20367;-45
2022/12/02 04:54:40;;;;;;;6.80;5.45;;;23.40;50.70;;;22.00;62.68;96028.41;4961327;28;20377;-46
2022/12/02 04:57:06;;;;;;;8.27;5.28;;;23.50;51.40;;;22.00;61.99;96015.84;4962325;28;20049;-48
2022/12/02 04:59:32;;;;;;;8.63;5.88;;;23.50;51.30;;;22.01;62.34;96009.41;4963755;28;20037;-48
2022/12/02 05:01:58;;;;;;;6.93;5.40;;;23.50;51.70;;;22.04;62.33;96015.31;4944068;28;20344;-54
2022/12/02 05:04:24;;;;;;;10.30;5.03;;;23.50;51.60;;;22.04;62.27;96007.25;4962322;28;20314;-46
2022/12/02 05:06:50;;;;;;;10.23;5.13;;;23.50;51.70;;;22.02;62.58;96011.00;4962406;28;20422;-47
2022/12/02 05:09:16;;;;;;;7.60;5.55;;;23.50;51.70;;;22.04;62.78;96021.50;4962243;28;20351;-54
2022/12/02 05:11:42;;;;;;;8.88;5.32;;;23.50;51.70;;;22.02;63.14;96015.56;4944956;28;20034;-46
2022/12/02 05:14:08;;;;;;;16.65;5.55;;;23.50;51.60;;;22.02;62.67;96011.00;4962445;28;20204;-48
2022/12/02 05:16:33;;;;;;;7.40;5.50;;;23.50;51.60;;;22.01;62.59;96012.09;4962341;28;20356;-47
2022/12/02 05:18:59;;;;;;;8.75;5.82;;;23.50;51.70;;;22.01;62.92;96012.09;4963178;28;20385;-50
2022/12/02 05:21:25;;;;;;;7.57;5.55;;;23.50;51.70;;;22.01;62.94;96006.72;4944812;28;20586;-47
2022/12/02 05:23:51;;;;;;;8.25;5.47;;;23.50;51.60;;;22.00;62.43;96007.78;4943596;28;20045;-46
2022/12/02 05:26:17;;;;;;;6.88;5.50;;;23.50;51.60;;;22.00;62.27;96005.13;4944396;28;20029;-48
2022/12/02 05:28:43;;;;;;;8.50;5.75;;;23.50;51.60;;;21.99;62.86;96006.19;4963809;28;20321;-47
2022/12/02 05:31:09;;;;;;;8.18;5.55;;;23.50;51.70;;;21.99;62.66;96008.06;4963402;28;20329;-48
2022/12/02 05:33:34;;;;;;;7.97;4.97;;;23.50;51.50;;;21.99;62.52;96008.88;4944420;28;20415;-50
2022/12/02 05:36:00;;;;;;;31.63;6.13;;;23.50;51.60;;;21.97;62.78;96008.31;4976168;28;20048;-47
2022/12/02 05:38:26;;;;;;;7.80;5.32;;;23.50;51.70;;;21.97;62.76;95997.63;4964202;28;20390;-47
2022/12/02 05:40:54;;;;;;;8.10;5.65;;;23.40;51.70;;;21.97;63.14;96005.66;4977046;28;20030;-49
2022/12/02 05:43:23;;;;;;;8.40;5.65;;;23.40;51.70;;;21.96;63.07;96000.56;4928144;28;20787;-47
2022/12/02 05:45:49;;;;;;;8.65;5.75;;;23.40;51.70;;;21.96;62.46;96005.91;4944924;28;20036;-48
2022/12/02 05:48:18;;;;;;;9.50;5.82;;;23.50;51.80;;;21.96;62.98;96009.41;4961899;28;20056;-47
2022/12/02 05:50:44;;;;;;;7.28;5.40;;;23.50;51.90;;;21.95;62.83;95999.75;4962235;28;20057;-46
2022/12/02 05:53:22;;;;;;;11.30;5.90;;;23.40;51.90;;;21.97;63.24;96010.19;4944532;28;20025;-48
2022/12/02 05:55:52;;;;;;;13.20;5.82;;;23.40;52.10;;;21.95;62.63;96002.44;4930267;28;20144;-47
2022/12/02 05:58:18;;;;;;;12.63;5.57;;;23.40;52.40;;;21.95;62.79;96004.28;4961682;28;20033;-46
2022/12/02 06:00:47;;;;;;;30.40;19.35;;;23.40;51.20;;;21.86;52.36;95985.25;4962534;28;20576;-47
2022/12/02 06:03:17;;;;;;;29.55;21.52;;;23.20;41.10;;;21.33;45.78;95960.41;4947640;28;20037;-47
2022/12/02 06:05:44;;;;;;;32.65;18.85;;;22.60;37.80;;;21.21;49.03;95983.84;4966043;28;20057;-48
2022/12/02 06:08:26;;;;;;;22.50;16.05;;;22.60;40.80;;;21.25;48.52;95982.28;4964811;28;20544;-47
2022/12/02 06:11:04;;;;;;;22.77;14.90;;;22.70;42.20;;;21.29;49.97;95994.09;4948116;28;20037;-48
2022/12/02 06:13:37;;;;;;;21.05;13.27;;;22.90;43.30;;;21.36;52.33;95996.53;4933602;28;20036;-48
2022/12/02 06:16:06;;;;;;;20.02;12.38;;;23.00;47.10;;;21.40;54.74;95998.44;4962976;28;20033;-46
2022/12/02 06:18:34;;;;;;;26.58;11.63;;;23.00;47.20;;;21.45;55.65;96000.31;4965708;28;20037;-47
2022/12/02 06:21:02;;;;;;;19.73;11.13;;;23.10;48.10;;;21.48;56.73;95996.31;4965316;28;20116;-48
2022/12/02 06:23:30;;;;;;;17.85;9.77;;;23.10;48.60;;;21.52;57.12;96000.09;4970079;28;20025;-49
2022/12/02 06:25:55;;;;;;;20.25;10.45;;;23.10;49.30;;;;;;4947192;28;20047;-50
2022/12/02 06:28:34;;;;;;;19.30;10.57;;;23.10;49.60;;;21.61;58.71;96001.22;4963609;28;20340;-53
2022/12/02 06:31:24;;;;;;;17.95;10.25;;;23.20;50.00;;;21.66;59.07;96006.56;4897946;28;20415;-52
2022/12/02 06:33:51;;;;;;;16.83;9.63;;;23.30;50.10;;;21.68;58.95;96012.47;4869003;28;20386;-52
2022/12/02 06:36:20;;;;;;;14.55;9.18;;;23.30;49.70;;;21.70;59.88;96007.66;4856125;28;20700;-49
2022/12/02 06:38:58;;;;;;;14.55;9.35;;;23.40;50.30;;;21.74;60.00;96006.09;4924243;28;20329;-52
2022/12/02 06:41:29;;;;;;;12.57;8.93;;;23.40;49.90;;;21.74;59.90;96014.13;4909966;28;20584;-51
2022/12/02 06:46:44;;;;;;;13.73;9.32;;;23.40;50.10;;;21.75;60.41;96010.38;4918130;28;20280;-52
2022/12/02 06:49:20;;;;;;;15.55;8.60;;;23.40;50.30;;;21.77;61.18;96018.97;4905702;28;20382;-47
2022/12/02 06:51:56;;;;;;;17.35;9.40;;;23.50;50.50;;;21.78;60.85;96019.75;4874420;28;20451;-46
2022/12/02 06:54:27;;;;;;;13.57;8.10;;;23.50;50.50;;;21.79;61.29;96008.78;4892774;28;20361;-44
2022/12/02 06:56:53;;;;;;;17.63;8.43;;;23.50;50.70;;;21.79;61.42;96010.66;4902371;28;20373;-43
2022/12/02 06:59:21;;;;;;;13.13;8.32;;;23.50;50.60;;;21.80;61.65;96006.91;4886981;28;20577;-45
2022/12/02 07:01:47;;;;;;;12.55;8.73;;;23.50;50.80;;;21.81;61.53;96014.69;4886231;28;20408;-44
2022/12/02 07:04:53;;;;;;;16.95;8.93;;;23.50;50.70;;;21.82;61.90;96010.94;4887378;28;20362;-44
2022/12/02 07:07:26;;;;;;;13.05;8.20;;;23.50;50.80;;;21.81;61.71;96014.69;4891555;28;20329;-46
2022/12/02 07:09:58;;;;;;;13.98;8.88;;;23.50;50.90;;;21.83;62.19;96017.09;4888853;28;20466;-45
2022/12/02 07:12:35;;;;;;;13.43;8.18;;;23.50;51.00;;;21.83;62.40;96007.19;4880448;28;20539;-44
2022/12/02 07:15:30;;;;;;;12.65;8.20;;;23.40;51.10;;;21.84;62.44;96016.03;4891879;28;20476;-43
2022/12/02 07:17:58;;;;;;;12.80;8.23;;;23.50;51.10;;;21.84;62.22;96014.16;4904363;28;20598;-44
2022/12/02 07:20:31;;;;;;;10.98;8.07;;;23.40;51.20;;;21.84;62.94;96014.16;4877142;28;20469;-44
2022/12/02 07:23:21;;;;;;;12.68;8.32;;;23.50;51.30;;;21.86;62.67;96017.38;4911140;28;20529;-42
2022/12/02 07:25:54;;;;;;;12.80;7.60;;;23.50;51.30;;;21.85;62.69;96018.44;4883072;28;20385;-45
2022/12/02 07:28:39;;;;;;;15.25;8.43;;;23.50;51.30;;;21.89;62.83;96016.03;4887534;28;20382;-44
2022/12/02 07:31:24;;;;;;;12.13;7.97;;;23.50;51.20;;;21.89;62.99;96021.41;4889278;28;20888;-44
2022/12/02 07:33:50;;;;;;;11.38;8.02;;;23.50;51.20;;;21.86;61.63;96020.06;4905480;28;20208;-42
2022/12/02 07:36:16;;;;;;;11.98;7.88;;;23.50;51.30;;;21.87;62.24;96019.00;4888534;28;20415;-44
2022/12/02 07:38:42;;;;;;;13.10;8.18;;;23.50;51.30;;;21.89;62.25;96016.03;4888900;28;20356;-43
2022/12/02 07:41:08;;;;;;;11.88;8.02;;;23.50;51.70;;;21.89;62.23;96014.16;4906853;28;20431;-45
2022/12/02 07:43:35;;;;;;;11.07;7.72;;;23.50;51.30;;;21.91;62.65;96020.06;4889067;28;20512;-44
2022/12/02 07:46:01;;;;;;;10.95;7.90;;;23.50;51.20;;;21.92;62.13;96010.97;4864777;28;20292;-43
2022/12/02 07:48:27;;;;;;;10.68;8.13;;;23.60;51.40;;;21.93;62.25;96017.94;4848182;28;20096;-44
2022/12/02 07:50:52;;;;;;;13.68;8.38;;;23.50;51.30;;;21.92;62.19;96015.50;4876227;28;20340;-43
2022/12/02 07:53:19;;;;;;;11.30;7.65;;;23.60;51.10;;;21.92;62.20;96016.31;4882258;28;20417;-47
2022/12/02 07:55:45;;;;;;;10.57;7.57;;;23.50;51.30;;;21.93;62.21;96011.78;4905527;28;20354;-43
2022/12/02 07:58:11;;;;;;;11.43;7.85;;;23.50;51.20;;;21.93;62.27;96012.56;4906552;28;20536;-45
2022/12/02 08:00:37;;;;;;;11.43;8.02;;;23.50;51.60;;;21.95;62.17;96012.31;4887738;28;20403;-47
2022/12/02 08:03:03;;;;;;;11.73;7.35;;;23.60;51.40;;;21.94;62.34;96008.81;4895837;28;20795;-45
2022/12/02 08:05:28;;;;;;;9.95;7.25;;;23.50;51.50;;;21.95;62.00;96015.81;4911981;28;20458;-46
2022/12/02 08:07:55;;;;;;;11.05;7.85;;;23.60;51.20;;;21.95;62.27;96010.47;4885852;28;20230;-46
2022/12/02 08:10:21;;;;;;;12.93;8.32;;;23.50;51.20;;;21.96;61.74;96017.44;4904772;28;20311;-44
2022/12/02 08:12:47;;;;;;;10.25;7.82;;;23.60;51.30;;;21.98;62.14;96009.13;4880724;28;20736;-45
2022/12/02 08:15:14;;;;;;;12.00;7.82;;;23.50;51.20;;;21.98;62.50;96009.94;4852325;28;20365;-46
2022/12/02 08:17:41;;;;;;;11.32;7.53;;;23.60;51.20;;;21.99;62.04;96011.53;4886767;28;20554;-47
2022/12/02 08:20:09;;;;;;;11.35;7.30;;;23.50;51.50;;;21.99;61.62;96014.22;4911906;28;20325;-48
2022/12/02 08:22:35;;;;;;;11.55;7.97;;;23.50;50.90;;;21.95;61.82;96007.78;4897253;28;20361;-45
2022/12/02 08:25:01;;;;;;;11.57;8.15;;;23.50;50.90;;;21.97;62.04;96002.16;4891247;28;20327;-45
2022/12/02 08:27:27;;;;;;;13.68;7.85;;;23.50;50.90;;;21.97;61.81;96005.66;4884035;28;20847;-45
2022/12/02 08:29:53;;;;;;;10.38;7.40;;;23.60;51.00;;;22.00;61.38;96007.00;4893508;28;20208;-45
2022/12/02 08:32:19;;;;;;;9.07;7.35;;;23.50;51.30;;;22.03;61.22;96006.47;4867491;28;20396;-45
2022/12/02 08:34:45;;;;;;;10.32;7.50;;;23.60;51.30;;;22.06;61.99;96007.84;4876838;28;20217;-46
2022/12/02 08:37:11;;;;;;;9.93;7.18;;;23.60;51.10;;;22.09;62.09;96009.97;4886109;28;20469;-47
2022/12/02 08:39:37;;;;;;;10.00;6.95;;;23.60;51.40;;;22.11;61.63;96013.19;4894855;28;20563;-46
2022/12/02 08:42:04;;;;;;;10.70;7.55;;;23.60;51.50;;;22.14;62.11;96018.03;4883136;28;20399;-47
2022/12/02 08:44:30;;;;;;;10.02;7.75;;;23.60;51.10;;;22.15;61.55;96014.28;4905162;28;20695;-45
2022/12/02 08:46:56;;;;;;;10.15;7.55;;;23.70;51.60;;;22.16;61.76;96010.53;4899604;28;20321;-47
2022/12/02 08:49:22;;;;;;;9.88;7.35;;;23.60;51.30;;;22.18;61.62;96013.75;4898553;28;20363;-45
2022/12/02 08:51:48;;;;;;;10.93;7.32;;;23.60;51.40;;;22.20;61.01;96008.97;4865931;28;20378;-45
2022/12/02 08:54:14;;;;;;;8.95;7.30;;;23.60;51.40;;;22.21;61.33;96007.88;4899988;28;20297;-47
2022/12/02 08:56:45;;;;;;;10.38;7.63;;;23.70;51.00;;;22.23;60.52;96005.75;4888899;28;20488;-45
2022/12/02 08:59:11;;;;;;;14.30;7.75;;;23.70;51.20;;;22.22;60.90;96004.94;4868504;28;20364;-47
2022/12/02 09:01:37;;;;;;;11.32;7.65;;;23.60;51.60;;;22.23;60.74;96000.38;4883145;28;20256;-48
2022/12/02 09:04:03;;;;;;;11.60;7.70;;;23.60;51.00;;;22.25;61.10;96003.59;4916165;28;20484;-46
2022/12/02 09:06:29;;;;;;;9.85;7.28;;;23.60;51.00;;;22.26;60.68;95999.84;4883702;28;20367;-49
2022/12/02 09:08:55;;;;;;;10.95;7.35;;;23.60;51.10;;;22.29;61.09;95999.31;4868916;28;20341;-45
2022/12/02 09:11:21;;;;;;;12.48;7.65;;;23.70;51.00;;;22.30;60.49;96004.41;4906725;28;20219;-45
2022/12/02 09:13:47;;;;;;;10.30;7.47;;;23.70;50.70;;;22.33;60.25;96000.41;4867733;28;20438;-44
2022/12/02 09:16:13;;;;;;;12.65;8.05;;;23.70;51.00;;;22.34;60.44;96002.00;4878973;28;22058;-47
2022/12/02 09:18:39;;;;;;;11.13;7.95;;;23.70;50.90;;;22.35;60.37;96002.81;4881990;28;20336;-43
2022/12/02 09:21:05;;;;;;;10.23;7.65;;;23.80;50.80;;;22.35;60.64;96008.97;4905903;28;20303;-45
2022/12/02 09:23:31;;;;;;;10.93;7.90;;;23.70;50.80;;;22.37;60.56;96006.03;4906080;28;20208;-45
2022/12/02 09:25:57;;;;;;;11.20;8.00;;;23.80;50.70;;;22.37;60.14;96000.66;4866635;28;20275;-45
2022/12/02 09:28:24;;;;;;;10.98;7.82;;;23.70;50.70;;;22.38;59.91;96004.94;4872724;28;20363;-45
2022/12/02 09:30:50;;;;;;;11.25;7.88;;;23.80;50.80;;;22.38;60.40;96005.75;4868175;28;20510;-45
2022/12/02 09:33:16;;;;;;;12.52;8.43;;;23.80;50.80;;;22.37;60.31;96001.47;4883651;28;20324;-44
2022/12/02 09:35:42;;;;;;;10.52;7.53;;;23.70;50.90;;;22.38;60.98;95997.72;4869003;28;20379;-43
2022/12/02 09:38:08;;;;;;;10.30;7.60;;;23.70;50.80;;;22.37;60.52;95992.63;4891009;28;20367;-46
2022/12/02 09:40:34;;;;;;;10.80;8.13;;;23.80;50.60;;;22.39;60.46;95993.16;4870861;28;20403;-47
2022/12/02 09:43:01;;;;;;;10.20;7.97;;;23.80;50.70;;;22.38;60.06;95997.72;4863547;28;20363;-46
2022/12/02 09:45:26;;;;;;;12.05;7.25;;;23.80;50.70;;;22.39;59.72;95990.47;4900720;28;20327;-45
2022/12/02 09:47:53;;;;;;;10.05;7.43;;;23.80;50.60;;;22.38;60.32;95987.00;4902472;28;20215;-47
2022/12/02 09:50:19;;;;;;;12.25;8.07;;;23.80;50.50;;;22.38;59.61;95992.34;4857611;28;20835;-46
2022/12/02 09:52:45;;;;;;;9.23;6.88;;;23.80;50.30;;;22.38;60.09;95986.19;4877694;28;20352;-45
2022/12/02 09:55:17;;;;;;;10.88;8.13;;;23.80;50.60;;;22.38;60.37;95984.31;4883547;28;20367;-45
2022/12/02 09:57:43;;;;;;;10.80;7.57;;;23.80;50.50;;;22.38;60.30;95980.84;4893585;28;20714;-45
2022/12/02 10:00:17;;;;;;;11.02;7.68;;;23.70;50.70;;;22.37;60.13;95980.03;4923175;28;20307;-44
2022/12/02 10:02:50;;;;;;;13.38;8.55;;;23.70;50.70;;;22.38;59.25;95983.50;4898022;28;20329;-45
2022/12/02 10:05:29;;;;;;;13.25;9.27;;;23.70;49.90;;;22.36;58.15;95974.94;4880990;28;20373;-44
2022/12/02 10:07:57;;;;;;;13.45;8.02;;;23.60;48.80;;;22.34;58.24;95979.75;4874564;28;20422;-44
2022/12/02 10:10:26;;;;;;;12.30;8.25;;;23.60;49.20;;;22.35;58.42;95982.16;4903756;28;20323;-46
2022/12/02 10:12:53;;;;;;;11.10;7.95;;;23.60;49.40;;;22.34;58.44;95977.88;4880204;28;20372;-44
2022/12/02 10:15:25;;;;;;;11.75;8.20;;;23.60;49.30;;;22.36;58.03;95978.41;4882494;28;20450;-44
2022/12/02 10:17:51;;;;;;;10.55;7.30;;;23.60;49.20;;;22.36;58.32;95966.91;4918342;28;20688;-44
2022/12/02 10:20:23;;;;;;;11.38;8.52;;;23.60;49.20;;;22.37;58.60;95957.78;4899976;28;20459;-44
2022/12/02 10:23:28;;;;;;;10.77;8.18;;;23.60;49.20;;;22.39;58.03;95967.16;4887305;28;20707;-44
2022/12/02 10:26:08;;;;;;;12.10;8.40;;;23.70;49.10;;;22.38;57.88;95964.75;4823119;29;20366;-45